Time;durP1;ratioP1;P1;durP2;ratioP2;P2;SDS_P1;SDS_P2;PMS_P1;PMS_P2;Temp;Humidity;BMP_temperature;BMP_pressure;BME280_temperature;BME280_humidity;BME280_pressure;Samples;Min_cycle;Max_cycle;Signal;HPM_P1;HPM_P2
2022/10/07 00:01:17;;;;;;;16.02;5.63;;;;;;;7.32;100.00;102763.34;5011796;28;20053;-73
2022/10/07 00:03:42;;;;;;;20.15;6.28;;;;;;;7.31;100.00;102765.06;5016556;28;20026;-73
2022/10/07 00:06:16;;;;;;;15.68;6.00;;;;;;;7.30;100.00;102757.25;5016931;28;20076;-73
2022/10/07 00:08:45;;;;;;;19.70;6.10;;;;;;;7.25;100.00;102739.00;5013875;28;20033;-73
2022/10/07 00:11:13;;;;;;;23.48;6.07;;;;;;;7.26;100.00;102752.00;5012069;28;20347;-73
2022/10/07 00:13:40;;;;;;;22.00;5.90;;;;;;;7.25;100.00;102758.00;5013663;28;20030;-73
2022/10/07 00:16:10;;;;;;;16.73;5.78;;;;;;;7.23;100.00;102754.53;5013468;28;20030;-73
2022/10/07 00:18:37;;;;;;;12.55;5.95;;;;;;;7.21;100.00;102752.75;5011468;28;20061;-72
2022/10/07 00:21:08;;;;;;;15.05;5.78;;;;;;;7.20;100.00;102751.88;5002800;28;20389;-72
2022/10/07 00:23:34;;;;;;;18.48;5.38;;;;;;;7.18;100.00;102745.78;5013439;28;20037;-73
2022/10/07 00:26:02;;;;;;;20.65;5.93;;;;;;;7.16;100.00;102744.88;5012192;28;20286;-72
2022/10/07 00:28:28;;;;;;;16.55;6.40;;;;;;;7.16;100.00;102744.88;5012152;28;20037;-72
2022/10/07 00:31:17;;;;;;;20.05;5.82;;;;;;;7.15;100.00;102740.50;5011621;28;20099;-73
2022/10/07 00:33:43;;;;;;;15.57;6.20;;;;;;;7.14;100.00;102737.91;5017047;28;20382;-72
2022/10/07 00:36:24;;;;;;;20.95;6.50;;;;;;;7.13;100.00;102736.13;5014759;28;20037;-73
2022/10/07 00:38:52;;;;;;;17.15;5.90;;;;;;;7.08;100.00;102733.44;5020186;28;20049;-73
2022/10/07 00:41:20;;;;;;;17.25;5.95;;;;;;;7.08;100.00;102736.03;5013749;28;20034;-72
2022/10/07 00:43:46;;;;;;;21.88;7.10;;;;;;;7.07;100.00;102733.44;5013693;28;20099;-72
2022/10/07 00:46:24;;;;;;;15.55;5.95;;;;;;;7.03;100.00;102733.38;5008299;28;20031;-73
2022/10/07 00:48:50;;;;;;;18.25;6.45;;;;;;;7.01;100.00;102724.66;5012731;28;20049;-73
2022/10/07 00:51:16;;;;;;;19.75;6.45;;;;;;;7.00;100.00;102724.66;5012219;28;20020;-73
2022/10/07 00:53:46;;;;;;;16.45;6.50;;;;;;;6.99;100.00;102725.47;5011948;28;20034;-72
2022/10/07 00:56:12;;;;;;;17.20;6.13;;;;;;;6.98;100.00;102719.41;5013171;28;20413;-73
2022/10/07 00:58:41;;;;;;;17.75;7.00;;;;;;;6.97;100.00;102722.84;5012312;28;20037;-73
2022/10/07 01:01:07;;;;;;;16.13;6.13;;;;;;;6.93;100.00;102708.09;5009692;28;20491;-72
2022/10/07 01:03:34;;;;;;;20.75;6.22;;;;;;;6.92;100.00;102710.63;5011605;28;20026;-73
2022/10/07 01:06:01;;;;;;;21.05;5.72;;;;;;;6.91;100.00;102701.09;5009471;28;20037;-72
2022/10/07 01:08:26;;;;;;;13.50;6.43;;;;;;;6.94;100.00;102708.97;5007152;28;20402;-73
2022/10/07 01:11:15;;;;;;;20.70;6.10;;;;;;;6.91;100.00;102703.69;5013334;28;20110;-73
2022/10/07 01:14:06;;;;;;;18.63;6.47;;;;;;;6.90;100.00;102708.03;5010241;28;20029;-72
2022/10/07 01:16:59;;;;;;;17.90;7.18;;;;;;;6.88;100.00;102701.03;5013015;28;20375;-73
2022/10/07 01:19:37;;;;;;;17.63;6.22;;;;;;;6.87;100.00;102699.31;5002218;28;20080;-73
2022/10/07 01:22:18;;;;;;;18.23;6.32;;;;;;;6.84;100.00;102688.88;5012783;28;20041;-72
2022/10/07 01:25:11;;;;;;;21.20;6.63;;;;;;;6.84;100.00;102684.56;5011974;28;20474;-72
2022/10/07 01:27:41;;;;;;;20.08;6.90;;;;;;;6.78;100.00;102685.28;5011999;28;20068;-72
2022/10/07 01:30:07;;;;;;;18.27;6.57;;;;;;;6.79;100.00;102679.25;5015776;28;20030;-72
2022/10/07 01:32:48;;;;;;;19.58;7.10;;;;;;;6.80;100.00;102682.72;5012637;28;20079;-72
2022/10/07 01:35:21;;;;;;;21.23;7.50;;;;;;;6.78;100.00;102674.91;5012422;28;20030;-72
2022/10/07 01:37:54;;;;;;;18.90;7.05;;;;;;;6.77;100.00;102670.59;5013371;28;20068;-73
2022/10/07 01:40:27;;;;;;;17.93;6.93;;;;;;;6.79;100.00;102660.22;5013046;28;20117;-72
2022/10/07 01:42:54;;;;;;;20.42;7.03;;;;;;;6.78;100.00;102659.34;5012322;28;20117;-72
2022/10/07 01:45:23;;;;;;;22.88;7.63;;;;;;;6.80;100.00;102659.38;5012121;28;20030;-72
2022/10/07 01:47:50;;;;;;;24.55;8.13;;;;;;;6.75;100.00;102641.16;5012586;28;20044;-72
2022/10/07 01:50:18;;;;;;;22.50;7.63;;;;;;;6.75;100.00;102641.16;5012430;28;20072;-72
2022/10/07 01:52:56;;;;;;;22.13;7.38;;;;;;;6.71;100.00;102631.56;5012722;28;20033;-72
2022/10/07 01:56:10;;;;;;;30.25;8.73;;;;;;;6.75;100.00;102635.97;5011610;28;20025;-73
2022/10/07 01:58:57;;;;;;;23.85;7.63;;;;;;;6.78;100.00;102623.06;4981384;28;20042;-72
2022/10/07 02:02:02;;;;;;;23.15;7.80;;;;;;;6.77;100.00;102631.69;5011382;28;20501;-72
2022/10/07 02:04:33;;;;;;;24.77;8.45;;;;;;;6.75;100.00;102623.00;5013613;28;20048;-72
2022/10/07 02:07:09;;;;;;;24.05;8.48;;;;;;;6.73;100.00;102619.50;5012779;28;20022;-72
2022/10/07 02:09:34;;;;;;;29.55;7.72;;;;;;;6.75;100.00;102623.00;5010765;28;20033;-72
2022/10/07 02:12:12;;;;;;;21.10;7.82;;;;;;;6.73;100.00;102614.31;5012398;28;20084;-73
2022/10/07 02:14:45;;;;;;;23.17;8.02;;;;;;;6.72;100.00;102611.69;5011766;28;20053;-72
2022/10/07 02:17:18;;;;;;;25.40;8.75;;;;;;;6.71;100.00;102610.84;5011594;28;20461;-73
2022/10/07 02:19:54;;;;;;;21.88;8.63;;;;;;;6.70;100.00;102609.09;5014127;28;20041;-72
2022/10/07 02:22:22;;;;;;;23.33;7.90;;;;;;;6.69;100.00;102609.91;5013790;28;20080;-72
2022/10/07 02:24:51;;;;;;;25.00;7.90;;;;;;;6.69;100.00;102609.91;5011531;28;20042;-73
2022/10/07 02:27:23;;;;;;;17.17;7.90;;;;;;;6.66;100.00;102594.28;5011634;28;20036;-72
2022/10/07 02:29:53;;;;;;;31.83;8.05;;;;;;;6.63;100.00;102593.38;5010615;28;20026;-72
2022/10/07 02:32:22;;;;;;;25.65;8.52;;;;;;;6.59;100.00;102584.66;5010378;28;20030;-72
2022/10/07 02:34:56;;;;;;;16.45;7.13;;;;;;;6.59;100.00;102584.66;5011553;28;20053;-72
2022/10/07 02:37:26;;;;;;;22.17;8.15;;;;;;;6.61;100.00;102590.75;5011263;28;20050;-72
2022/10/07 02:39:54;;;;;;;24.48;8.05;;;;;;;6.59;100.00;102588.97;5011553;28;20026;-72
2022/10/07 02:42:26;;;;;;;25.63;7.45;;;;;;;6.58;100.00;102582.91;5011291;28;20068;-72
2022/10/07 02:45:01;;;;;;;24.80;9.15;;;;;;;6.58;100.00;102582.91;5010304;28;20040;-72
2022/10/07 02:47:29;;;;;;;23.98;7.72;;;;;;;6.55;100.00;102575.06;5011533;28;20470;-72
2022/10/07 02:50:00;;;;;;;19.48;7.93;;;;;;;6.51;100.00;102571.53;5011046;28;20092;-72
2022/10/07 02:52:30;;;;;;;21.35;8.15;;;;;;;6.53;100.00;102562.06;5009872;28;20386;-72
2022/10/07 02:54:59;;;;;;;24.95;7.35;;;;;;;6.50;100.00;102568.91;5012218;28;20026;-72
2022/10/07 02:57:29;;;;;;;19.30;8.05;;;;;;;6.51;100.00;102568.09;5011003;28;20030;-72
2022/10/07 03:00:00;;;;;;;20.75;7.38;;;;;;;6.46;100.00;102561.91;5010805;28;20185;-72
2022/10/07 03:02:34;;;;;;;16.42;7.57;;;;;;;6.46;100.00;102564.50;5012459;28;20037;-72
2022/10/07 03:04:59;;;;;;;;;;;;;;;6.40;100.00;102562.66;5011864;28;20026;-72
2022/10/07 03:07:25;;;;;;;18.77;7.15;;;;;;;6.39;100.00;102554.88;5010980;28;20387;-73
2022/10/07 03:09:51;;;;;;;19.65;7.13;;;;;;;6.41;100.00;102551.47;5011591;28;20030;-72
2022/10/07 03:12:16;;;;;;;23.38;7.55;;;;;;;6.38;100.00;102553.13;5011802;28;20428;-72
2022/10/07 03:14:43;;;;;;;15.18;7.00;;;;;;;6.40;100.00;102548.84;5011847;28;20531;-73
2022/10/07 03:17:09;;;;;;;24.15;7.45;;;;;;;6.36;100.00;102547.91;5014774;28;20022;-72
2022/10/07 03:19:34;;;;;;;22.30;7.60;;;;;;;6.35;100.00;102553.94;5014118;28;20485;-72
2022/10/07 03:21:59;;;;;;;23.35;7.70;;;;;;;6.33;100.00;102540.06;5015111;28;20101;-73
2022/10/07 03:24:25;;;;;;;21.88;7.72;;;;;;;6.29;100.00;102546.88;5014884;28;20101;-72
2022/10/07 03:26:50;;;;;;;19.88;7.30;;;;;;;6.26;100.00;102533.88;5014885;28;20018;-72
2022/10/07 03:29:16;;;;;;;22.17;8.00;;;;;;;6.27;100.00;102530.44;5014854;28;20442;-72
2022/10/07 03:31:41;;;;;;;17.92;7.40;;;;;;;6.24;100.00;102538.13;5015163;28;20134;-72
2022/10/07 03:34:07;;;;;;;24.50;8.15;;;;;;;6.26;100.00;102533.88;5013315;28;20103;-72
2022/10/07 03:36:32;;;;;;;24.13;7.30;;;;;;;6.25;100.00;102531.28;5014045;28;20470;-72
2022/10/07 03:38:58;;;;;;;20.58;7.63;;;;;;;6.24;100.00;102527.78;5014906;28;20044;-72
2022/10/07 03:41:23;;;;;;;18.95;7.70;;;;;;;6.23;100.00;102523.44;5013847;28;20474;-73
2022/10/07 03:43:48;;;;;;;19.98;8.10;;;;;;;6.17;100.00;102520.72;5015162;28;20470;-72
2022/10/07 03:46:14;;;;;;;19.77;8.35;;;;;;;6.12;100.00;102509.41;5001578;28;20026;-72
2022/10/07 03:48:39;;;;;;;23.92;8.02;;;;;;;6.19;100.00;102524.22;5012287;28;20533;-73
2022/10/07 03:51:04;;;;;;;20.88;8.15;;;;;;;6.17;100.00;102515.53;5017863;28;20101;-72
2022/10/07 03:53:30;;;;;;;32.35;8.50;;;;;;;6.18;100.00;102519.00;5027162;28;20509;-72
2022/10/07 03:55:56;;;;;;;26.05;8.57;;;;;;;6.14;100.00;102512.88;5024927;28;20030;-72
2022/10/07 03:58:21;;;;;;;25.77;8.38;;;;;;;6.15;100.00;102522.44;5014068;28;20533;-72
2022/10/07 04:00:47;;;;;;;23.83;8.23;;;;;;;6.16;100.00;102521.56;5013988;28;20398;-72
2022/10/07 04:03:14;;;;;;;20.52;8.27;;;;;;;6.18;100.00;102514.72;5012913;28;20030;-72
2022/10/07 04:05:40;;;;;;;22.65;8.20;;;;;;;6.16;100.00;102518.13;5013926;28;20060;-73
2022/10/07 04:08:06;;;;;;;26.70;8.45;;;;;;;6.14;100.00;102510.28;5015584;28;20089;-72
2022/10/07 04:10:33;;;;;;;26.45;8.60;;;;;;;6.14;100.00;102523.25;5009153;28;20041;-72
2022/10/07 04:12:58;;;;;;;20.20;8.25;;;;;;;6.06;100.00;102511.88;5014312;28;20105;-72
2022/10/07 04:15:23;;;;;;;27.48;8.18;;;;;;;6.06;100.00;102512.72;5014170;28;20362;-73
2022/10/07 04:17:57;;;;;;;22.92;7.75;;;;;;;6.03;100.00;102511.78;5013891;28;20058;-72
2022/10/07 04:20:22;;;;;;;19.38;8.52;;;;;;;6.04;100.00;102503.19;5011506;28;20030;-72
2022/10/07 04:22:48;;;;;;;26.88;9.00;;;;;;;5.97;100.00;102502.16;5010712;28;20040;-72
2022/10/07 04:27:59;;;;;;;28.70;8.90;;;;;;;5.94;100.00;102494.34;5014816;28;20282;-72
2022/10/07 04:30:26;;;;;;;24.88;8.52;;;;;;;5.93;100.00;102492.59;5013165;28;20104;-72
2022/10/07 04:32:52;;;;;;;21.75;8.55;;;;;;;5.94;100.00;102501.22;5014076;28;20042;-72
2022/10/07 04:35:18;;;;;;;21.88;8.80;;;;;;;5.96;100.00;102503.03;5013901;28;20492;-72
2022/10/07 04:37:43;;;;;;;21.67;8.30;;;;;;;5.97;100.00;102501.31;5012301;28;20025;-72
2022/10/07 04:40:09;;;;;;;26.20;9.02;;;;;;;5.93;100.00;102499.50;5014064;28;20028;-72
2022/10/07 04:45:19;;;;;;;;;;;;;;;5.91;100.00;102506.31;5013110;28;20096;-72
2022/10/07 04:47:45;;;;;;;27.00;7.80;;;;;;;5.91;100.00;102499.41;5012833;28;20332;-73
2022/10/07 04:50:11;;;;;;;22.65;8.00;;;;;;;5.84;100.00;102494.94;5013676;28;20104;-72
2022/10/07 04:52:41;;;;;;;21.63;8.27;;;;;;;5.89;100.00;102500.25;5012090;28;20129;-72
2022/10/07 04:55:07;;;;;;;29.42;8.95;;;;;;;5.85;100.00;102509.63;5013725;28;20064;-72
2022/10/07 04:57:32;;;;;;;21.15;8.48;;;;;;;5.77;100.00;102491.34;5013347;28;20462;-72
2022/10/07 04:59:57;;;;;;;20.75;8.07;;;;;;;5.83;100.00;102488.91;5010114;28;20018;-72
2022/10/07 05:02:23;;;;;;;21.20;8.10;;;;;;;5.81;100.00;102489.69;5005599;28;20478;-72
2022/10/07 05:04:48;;;;;;;25.10;8.25;;;;;;;5.81;100.00;102482.78;5009920;28;20040;-72
2022/10/07 05:07:13;;;;;;;27.77;7.65;;;;;;;5.81;100.00;102484.50;5013273;28;20465;-72
2022/10/07 05:09:39;;;;;;;28.17;7.32;;;;;;;5.79;100.00;102487.09;5016558;28;20034;-72
2022/10/07 05:12:05;;;;;;;25.73;8.93;;;;;;;5.80;100.00;102482.78;5013270;28;20425;-72
2022/10/07 05:14:31;;;;;;;27.05;8.18;;;;;;;5.76;100.00;102479.25;5011923;28;20037;-72
2022/10/07 05:16:57;;;;;;;24.83;8.48;;;;;;;5.76;100.00;102471.50;5012770;28;20026;-72
2022/10/07 05:19:22;;;;;;;23.52;7.55;;;;;;;5.83;100.00;102477.66;5010005;28;20080;-72
2022/10/07 05:21:47;;;;;;;22.02;7.60;;;;;;;5.81;100.00;102476.75;5016357;28;20038;-73
2022/10/07 05:24:12;;;;;;;22.77;7.80;;;;;;;5.83;100.00;102475.09;5011634;28;20478;-73
2022/10/07 05:26:38;;;;;;;18.73;6.90;;;;;;;5.80;100.00;102465.53;5011117;28;20061;-73
2022/10/07 05:29:04;;;;;;;27.13;8.32;;;;;;;5.81;100.00;102471.56;5011415;28;20470;-72
2022/10/07 05:31:30;;;;;;;24.55;8.40;;;;;;;5.83;100.00;102470.78;5015582;28;20028;-72
2022/10/07 05:33:55;;;;;;;29.73;8.27;;;;;;;5.81;100.00;102477.63;5015333;28;20034;-72
2022/10/07 05:36:20;;;;;;;33.22;7.32;;;;;;;5.83;100.00;102462.13;5011982;28;20075;-72
2022/10/07 05:38:46;;;;;;;28.08;7.13;;;;;;;5.83;100.00;102464.72;5011520;28;20045;-72
2022/10/07 05:41:11;;;;;;;23.35;7.20;;;;;;;5.82;100.00;102461.28;5012998;28;20022;-73
2022/10/07 05:43:41;;;;;;;24.60;8.05;;;;;;;5.87;100.00;102467.41;5026724;28;20041;-72
2022/10/07 05:46:11;;;;;;;20.48;7.50;;;;;;;5.87;100.00;102459.63;5011443;28;20474;-72
2022/10/07 05:48:37;;;;;;;24.70;7.07;;;;;;;5.86;100.00;102468.25;5011068;28;20038;-72
2022/10/07 05:51:02;;;;;;;21.75;6.93;;;;;;;5.89;100.00;102466.59;5013968;28;20500;-72
2022/10/07 05:53:29;;;;;;;25.77;7.18;;;;;;;5.87;100.00;102463.94;5006682;28;20041;-72
2022/10/07 05:55:54;;;;;;;22.13;6.70;;;;;;;5.87;100.00;102457.06;5011542;28;20034;-72
2022/10/07 05:58:21;;;;;;;28.75;7.75;;;;;;;5.90;100.00;102457.97;5013382;28;20032;-73
2022/10/07 06:00:55;;;;;;;28.48;7.60;;;;;;;5.90;100.00;102451.06;5007885;28;20034;-72
2022/10/07 06:03:20;;;;;;;;;;;;;;;5.80;100.00;102438.78;5008892;28;20049;-72
2022/10/07 06:05:46;;;;;;;22.20;7.00;;;;;;;5.92;100.00;102443.31;5012610;28;19996;-73
2022/10/07 06:08:12;;;;;;;23.65;6.97;;;;;;;5.93;100.00;102448.59;5012360;28;20022;-72
2022/10/07 06:13:22;;;;;;;;;;;;;;;5.98;100.00;102446.94;5015682;28;20037;-73
2022/10/07 06:15:48;;;;;;;18.30;5.10;;;;;;;6.02;100.00;102451.38;5012309;28;19980;-72
2022/10/07 06:18:14;;;;;;;20.25;6.25;;;;;;;6.06;100.00;102454.91;5014738;28;20080;-72
2022/10/07 06:20:39;;;;;;;26.55;6.60;;;;;;;6.07;100.00;102449.75;5012888;28;20393;-72
2022/10/07 06:23:06;;;;;;;25.45;6.25;;;;;;;6.09;100.00;102442.88;5010789;28;20030;-73
2022/10/07 06:25:31;;;;;;;23.50;6.55;;;;;;;6.13;100.00;102440.38;5011485;28;20492;-73
2022/10/07 06:27:57;;;;;;;21.02;6.35;;;;;;;6.12;100.00;102431.72;5011366;28;20133;-72
2022/10/07 06:30:24;;;;;;;25.60;6.70;;;;;;;6.22;100.00;102443.16;5010427;28;20037;-72
2022/10/07 06:32:49;;;;;;;19.80;6.38;;;;;;;6.25;100.00;102435.44;5013649;28;20116;-72
2022/10/07 06:35:14;;;;;;;20.90;6.25;;;;;;;6.29;100.00;102442.41;5008896;28;20104;-72
2022/10/07 06:37:40;;;;;;;30.67;7.20;;;;;;;6.27;100.00;102432.00;5009547;28;20120;-73
2022/10/07 06:40:05;;;;;;;28.92;6.70;;;;;;;6.39;100.00;102451.25;5012813;28;20363;-72
2022/10/07 06:42:31;;;;;;;22.23;7.40;;;;;;;6.44;100.00;102442.72;5011327;28;20059;-72
2022/10/07 06:44:56;;;;;;;22.02;6.20;;;;;;;6.50;100.00;102439.34;5010942;28;20030;-72
2022/10/07 06:47:22;;;;;;;23.73;6.03;;;;;;;6.49;100.00;102432.44;5011427;28;20048;-72
2022/10/07 06:49:47;;;;;;;21.95;8.02;;;;;;;6.58;100.00;102437.78;5011542;28;20088;-72
2022/10/07 06:52:12;;;;;;;19.02;5.80;;;;;;;6.67;100.00;102440.56;5010410;28;20042;-72
2022/10/07 06:54:38;;;;;;;21.67;6.43;;;;;;;6.72;100.00;102446.69;5011291;28;20109;-72
2022/10/07 06:57:03;;;;;;;21.25;5.57;;;;;;;6.82;100.00;102449.44;5011551;28;20022;-72
2022/10/07 06:59:28;;;;;;;19.25;5.90;;;;;;;6.88;100.00;102446.97;5010741;28;20045;-72
2022/10/07 07:01:53;;;;;;;24.88;5.95;;;;;;;6.91;100.00;102442.69;5011981;28;20144;-72
2022/10/07 07:04:19;;;;;;;18.20;5.80;;;;;;;6.99;100.00;102454.06;5011734;28;20022;-73
2022/10/07 07:06:45;;;;;;;21.13;5.97;;;;;;;7.04;100.00;102447.25;5010860;28;20030;-72
2022/10/07 07:09:10;;;;;;;17.52;5.90;;;;;;;7.06;100.00;102443.78;5011761;28;20029;-72
2022/10/07 07:11:35;;;;;;;20.38;5.20;;;;;;;7.16;100.00;102451.78;5011293;28;20034;-72
2022/10/07 07:14:05;;;;;;;16.50;5.13;;;;;;;7.23;100.00;102438.06;5011112;28;20462;-71
2022/10/07 07:16:31;;;;;;;19.83;5.78;;;;;;;7.31;100.00;102451.13;5010708;28;20066;-72
2022/10/07 07:18:58;;;;;;;17.73;5.45;;;;;;;7.37;100.00;102435.66;5010884;28;20049;-72
2022/10/07 07:21:27;;;;;;;20.55;5.97;;;;;;;7.44;100.00;102439.22;5003976;28;20369;-73
2022/10/07 07:23:52;;;;;;;17.17;4.90;;;;;;;7.49;100.00;102443.63;5011883;28;20033;-72
2022/10/07 07:26:19;;;;;;;17.38;5.70;;;;;;;7.54;100.00;102440.22;5010826;28;20018;-72
2022/10/07 07:28:53;;;;;;;19.15;4.75;;;;;;;7.56;100.00;102439.41;5011449;28;20025;-73
2022/10/07 07:31:19;;;;;;;14.80;5.07;;;;;;;7.67;100.00;102443.03;5010609;28;20103;-72
2022/10/07 07:33:51;;;;;;;15.32;5.57;;;;;;;7.80;100.00;102438.88;5010547;28;20431;-71
2022/10/07 07:36:17;;;;;;;15.25;5.00;;;;;;;7.90;100.00;102439.88;5011257;28;20080;-72
2022/10/07 07:38:43;;;;;;;15.65;5.10;;;;;;;8.01;100.00;102429.59;5011702;28;20014;-72
2022/10/07 07:41:09;;;;;;;23.27;5.40;;;;;;;8.08;100.00;102428.84;4997221;28;20030;-72
2022/10/07 07:43:35;;;;;;;19.58;5.53;;;;;;;8.21;100.00;102443.72;5011205;28;20033;-72
2022/10/07 07:46:01;;;;;;;19.70;5.05;;;;;;;8.17;100.00;102424.66;5011319;28;20029;-72
2022/10/07 07:48:26;;;;;;;14.00;4.10;;;;;;;8.32;100.00;102431.72;5010282;28;20046;-72
2022/10/07 07:50:52;;;;;;;15.32;4.60;;;;;;;8.39;100.00;102427.50;5010544;28;20076;-72
2022/10/07 07:53:17;;;;;;;12.48;4.70;;;;;;;8.46;100.00;102429.31;5011462;28;20030;-72
2022/10/07 07:55:53;;;;;;;15.68;4.82;;;;;;;8.49;100.00;102438.88;5010556;28;20026;-72
2022/10/07 07:58:20;;;;;;;20.02;5.32;;;;;;;8.52;100.00;102437.16;5010358;28;20018;-72
2022/10/07 08:00:59;;;;;;;16.00;4.85;;;;;;;8.52;100.00;102424.16;5012443;28;20030;-72
2022/10/07 08:03:25;;;;;;;17.65;5.43;;;;;;;8.64;100.00;102436.44;5013170;28;20028;-72
2022/10/07 08:05:51;;;;;;;17.90;5.60;;;;;;;8.73;100.00;102440.84;5011284;28;20065;-72
2022/10/07 08:08:16;;;;;;;18.75;4.60;;;;;;;8.75;100.00;102433.94;5014182;28;20030;-72
2022/10/07 08:10:41;;;;;;;15.02;4.93;;;;;;;8.77;100.00;102427.91;5009508;28;20105;-72
2022/10/07 08:13:07;;;;;;;12.23;4.18;;;;;;;8.88;100.00;102414.97;5005809;28;20157;-72
2022/10/07 08:15:32;;;;;;;24.95;4.57;;;;;;;9.02;100.00;102428.09;5012734;28;20022;-72
2022/10/07 08:17:58;;;;;;;14.68;4.28;;;;;;;9.14;100.00;102425.59;5008054;28;20037;-72
2022/10/07 08:20:23;;;;;;;15.15;4.50;;;;;;;9.21;100.00;102413.50;5013969;28;20040;-72
2022/10/07 08:22:51;;;;;;;20.17;4.55;;;;;;;9.32;100.00;102414.47;5012503;28;20084;-72
2022/10/07 08:25:16;;;;;;;17.95;4.32;;;;;;;9.44;100.00;102421.47;5014573;28;20056;-75
2022/10/07 08:27:42;;;;;;;13.02;4.22;;;;;;;9.53;100.00;102421.53;5004390;28;20061;-73
2022/10/07 08:30:08;;;;;;;16.77;4.10;;;;;;;9.60;100.00;102421.56;5013584;28;20040;-73
2022/10/07 08:32:33;;;;;;;15.38;4.45;;;;;;;9.67;100.00;102421.59;5010615;28;20034;-72
2022/10/07 08:34:58;;;;;;;16.42;3.60;;;;;;;9.79;100.00;102408.66;5006750;28;20401;-73
2022/10/07 08:37:24;;;;;;;15.77;4.15;;;;;;;9.87;100.00;102416.50;5011768;28;20030;-73
2022/10/07 08:39:49;;;;;;;11.75;3.90;;;;;;;9.81;100.00;102386.97;5013987;28;20528;-73
2022/10/07 08:42:32;;;;;;;21.77;4.88;;;;;;;10.02;100.00;102409.63;5013447;28;20041;-73
2022/10/07 08:44:58;;;;;;;13.60;3.40;;;;;;;10.12;100.00;102407.06;5013774;28;20391;-73
2022/10/07 08:47:42;;;;;;;13.30;4.30;;;;;;;10.17;100.00;102407.91;5013331;28;20536;-73
2022/10/07 08:50:16;;;;;;;14.65;4.63;;;;;;;10.24;100.00;102396.66;5012558;28;20045;-73
2022/10/07 08:52:49;;;;;;;19.42;4.45;;;;;;;10.37;100.00;102398.47;5013499;28;20046;-73
2022/10/07 08:55:27;;;;;;;18.77;3.92;;;;;;;10.47;100.00;102391.53;5008131;28;20035;-73
2022/10/07 08:58:14;;;;;;;18.67;3.80;;;;;;;10.52;100.00;102388.06;5006124;28;20080;-73
2022/10/07 09:00:48;;;;;;;15.82;3.58;;;;;;;10.55;100.00;102384.59;5002462;28;20032;-73
2022/10/07 09:03:23;;;;;;;17.00;3.80;;;;;;;10.60;100.00;102376.78;5001870;28;20114;-73
2022/10/07 09:05:50;;;;;;;13.20;4.20;;;;;;;10.67;100.00;102388.94;5012423;28;20053;-73
2022/10/07 09:08:29;;;;;;;15.00;3.58;;;;;;;10.64;100.00;102378.50;5011581;28;20423;-73
2022/10/07 09:10:58;;;;;;;14.35;3.72;;;;;;;10.71;100.00;102383.72;5013096;28;20034;-74
2022/10/07 09:13:29;;;;;;;15.85;3.40;;;;;;;10.86;100.00;102376.78;5012039;28;20081;-74
2022/10/07 09:16:03;;;;;;;15.75;4.50;;;;;;;11.02;100.00;102368.09;5013701;28;20371;-73
2022/10/07 09:18:38;;;;;;;15.20;5.07;;;;;;;11.15;100.00;102368.91;5011697;28;20030;-74
2022/10/07 09:21:11;;;;;;;15.55;3.92;;;;;;;11.35;100.00;102364.53;5000083;28;20109;-74
2022/10/07 09:23:37;;;;;;;20.25;3.72;;;;;;;11.49;100.00;102357.53;5008771;28;20042;-74
2022/10/07 09:26:15;;;;;;;13.63;3.97;;;;;;;11.62;100.00;102358.34;5012524;28;20395;-74
2022/10/07 09:28:41;;;;;;;16.52;3.88;;;;;;;11.72;100.00;102351.34;5012796;28;20501;-74
2022/10/07 09:31:07;;;;;;;16.58;4.00;;;;;;;11.83;100.00;102349.56;5013486;28;20033;-74
2022/10/07 09:33:41;;;;;;;10.55;3.22;;;;;;;11.94;100.00;102354.78;5012225;28;20502;-73
2022/10/07 09:36:09;;;;;;;17.85;3.78;;;;;;;11.99;100.00;102344.28;5013105;28;20064;-73
2022/10/07 09:38:38;;;;;;;11.90;3.38;;;;;;;12.10;100.00;102351.22;5012665;28;20087;-73
2022/10/07 09:41:16;;;;;;;10.93;3.17;;;;;;;12.20;99.22;102344.19;5012140;28;20466;-73
2022/10/07 09:44:15;;;;;;;9.02;3.00;;;;;;;12.36;98.65;102343.19;5012779;28;20033;-74
2022/10/07 09:47:00;;;;;;;10.60;3.55;;;;;;;12.33;94.86;102338.00;4999827;28;20041;-74
2022/10/07 09:49:26;;;;;;;12.07;2.95;;;;;;;12.29;95.00;102338.00;5012454;28;20046;-74
2022/10/07 09:52:21;;;;;;;12.27;2.72;;;;;;;12.26;96.23;102331.06;5013259;28;20466;-74
2022/10/07 09:54:49;;;;;;;17.17;3.25;;;;;;;12.44;96.47;102332.69;5012122;28;20018;-73
2022/10/07 09:57:34;;;;;;;16.50;3.17;;;;;;;12.60;95.03;102336.91;5012814;28;20458;-73
2022/10/07 10:00:15;;;;;;;13.07;2.78;;;;;;;12.74;94.65;102325.44;5013020;28;20014;-74
2022/10/07 10:03:03;;;;;;;13.65;3.25;;;;;;;12.83;95.99;102321.00;5011689;28;20034;-74
2022/10/07 10:05:32;;;;;;;14.88;3.05;;;;;;;12.88;95.16;102318.34;4999662;28;20044;-73
2022/10/07 10:08:04;;;;;;;14.48;2.83;;;;;;;12.88;94.05;102320.94;5011886;28;20034;-74
2022/10/07 10:10:34;;;;;;;10.48;2.20;;;;;;;12.91;90.31;102315.69;5012168;28;20030;-73
2022/10/07 10:13:02;;;;;;;12.35;2.88;;;;;;;12.97;90.31;102304.28;5012852;28;20037;-73
2022/10/07 10:15:36;;;;;;;18.80;3.20;;;;;;;13.13;88.89;102309.34;5009523;28;20033;-74
2022/10/07 10:18:23;;;;;;;13.20;3.03;;;;;;;13.29;88.58;102304.84;5011068;28;20053;-74
2022/10/07 10:20:48;;;;;;;11.57;2.40;;;;;;;13.44;88.72;102293.34;4999499;28;20038;-74
2022/10/07 10:23:27;;;;;;;11.50;2.40;;;;;;;13.59;89.95;102298.38;5010559;28;20076;-74
2022/10/07 10:26:26;;;;;;;11.00;2.30;;;;;;;13.68;89.14;102292.16;4999107;28;20022;-73
2022/10/07 10:29:10;;;;;;;15.77;3.20;;;;;;;13.65;89.21;102283.47;5009834;28;20398;-74
2022/10/07 10:31:45;;;;;;;;;;;;;;;13.59;91.15;102277.41;5012364;28;20108;-74
2022/10/07 10:34:47;;;;;;;13.63;2.63;;;;;;;13.77;84.66;102270.19;5011586;28;19921;-74
2022/10/07 10:37:20;;;;;;;15.73;3.88;;;;;;;13.99;81.85;102270.72;5011258;28;20040;-74
2022/10/07 10:40:16;;;;;;;12.30;2.72;;;;;;;14.14;84.08;102265.25;5010260;28;20493;-74
2022/10/07 10:42:52;;;;;;;17.30;2.55;;;;;;;14.33;85.11;102249.25;5008733;28;20092;-74
2022/10/07 10:45:40;;;;;;;12.00;2.30;;;;;;;14.57;84.32;102248.84;5012029;28;20453;-73
2022/10/07 10:48:30;;;;;;;10.90;2.33;;;;;;;14.70;79.79;102249.47;4999552;28;20014;-74
2022/10/07 10:51:14;;;;;;;11.40;2.38;;;;;;;14.74;77.06;102243.28;5008929;28;20040;-74
2022/10/07 10:53:39;;;;;;;12.57;1.92;;;;;;;14.79;77.80;102232.72;5008415;28;20084;-74
2022/10/07 10:56:16;;;;;;;11.90;2.75;;;;;;;14.90;80.93;102242.09;5012108;28;20030;-74
2022/10/07 10:59:00;;;;;;;10.45;2.60;;;;;;;15.06;78.11;102232.16;5010004;28;20482;-74
2022/10/07 11:01:43;;;;;;;11.70;2.75;;;;;;;15.16;79.55;102225.81;5011315;28;20034;-74
2022/10/07 11:04:30;;;;;;;11.13;2.13;;;;;;;15.30;78.94;102235.16;5010553;28;20053;-74
2022/10/07 11:07:18;;;;;;;12.43;2.78;;;;;;;15.38;79.42;102231.50;5010070;28;20554;-74
2022/10/07 11:09:49;;;;;;;13.52;2.15;;;;;;;15.36;73.69;102227.16;5000950;28;20494;-74
2022/10/07 11:12:35;;;;;;;7.43;2.30;;;;;;;15.33;75.99;102221.97;5008180;28;20021;-74
2022/10/07 11:15:13;;;;;;;8.85;2.33;;;;;;;15.48;74.03;102221.66;5011873;28;20025;-74
2022/10/07 11:17:39;;;;;;;11.73;2.58;;;;;;;15.66;73.78;102212.47;5010197;28;20113;-74
2022/10/07 11:20:16;;;;;;;9.90;2.00;;;;;;;15.78;74.57;102204.34;5008604;28;20037;-74
2022/10/07 11:22:50;;;;;;;17.55;2.00;;;;;;;16.04;69.88;102208.97;5000038;28;20060;-74
2022/10/07 11:25:37;;;;;;;11.65;2.22;;;;;;;16.19;72.48;102201.63;5009503;28;20030;-74
2022/10/07 11:28:13;;;;;;;15.05;2.13;;;;;;;16.14;67.39;102199.94;5006840;28;20382;-74
2022/10/07 11:31:04;;;;;;;7.20;2.03;;;;;;;16.30;70.87;102194.31;5008397;28;20018;-74
2022/10/07 11:33:37;;;;;;;12.23;2.53;;;;;;;16.40;71.97;102180.00;4996695;28;20034;-74
2022/10/07 11:36:17;;;;;;;10.82;2.45;;;;;;;16.63;72.06;102180.25;4999305;28;20488;-74
2022/10/07 11:38:42;;;;;;;9.20;2.75;;;;;;;17.09;71.50;102170.19;5013968;28;20393;-74
2022/10/07 11:41:13;;;;;;;11.30;2.33;;;;;;;17.70;67.64;102159.53;5008901;28;20041;-75